createdAt,value
2018-07-12T00:01:33.013Z,17.40
2018-07-12T00:06:26.078Z,17.30
2018-07-12T00:11:18.990Z,17.30
2018-07-12T00:16:11.966Z,17.30
2018-07-12T00:21:04.828Z,17.20
2018-07-12T00:30:50.854Z,17.30
2018-07-12T00:35:43.811Z,17.30
2018-07-12T00:40:36.740Z,17.40
2018-07-12T00:45:29.654Z,17.40
2018-07-12T00:50:22.895Z,17.40
2018-07-12T00:55:15.798Z,17.40
2018-07-12T01:00:08.760Z,17.50
2018-07-12T01:05:01.635Z,17.50
2018-07-12T01:09:54.815Z,17.50
2018-07-12T01:14:47.760Z,17.50
2018-07-12T01:19:40.670Z,17.60
2018-07-12T01:24:33.721Z,17.60
2018-07-12T01:29:26.685Z,17.60
2018-07-12T01:34:19.644Z,17.60
2018-07-12T01:39:12.814Z,17.50
2018-07-12T01:44:06.120Z,17.50
2018-07-12T01:48:59.091Z,17.50
2018-07-12T01:53:51.975Z,17.50
2018-07-12T01:58:45.177Z,17.50
2018-07-12T02:03:38.086Z,17.50
2018-07-12T02:08:31.029Z,17.50
2018-07-12T02:13:23.897Z,17.50
2018-07-12T02:18:16.890Z,17.50
2018-07-12T02:23:09.764Z,17.40
2018-07-12T02:28:02.644Z,17.40
2018-07-12T02:32:55.585Z,17.30
2018-07-12T02:37:48.450Z,17.20
2018-07-12T02:42:41.406Z,17.10
2018-07-12T02:47:34.289Z,17.00
2018-07-12T02:52:27.361Z,16.80
2018-07-12T02:57:20.237Z,16.60
2018-07-12T03:02:13.104Z,16.50
2018-07-12T03:07:05.991Z,16.30
2018-07-12T03:11:58.864Z,16.20
2018-07-12T03:16:51.753Z,16.10
2018-07-12T03:21:44.618Z,16.00
2018-07-12T03:26:37.659Z,16.00
2018-07-12T03:31:30.509Z,15.90
2018-07-12T03:41:16.982Z,16.20
2018-07-12T03:46:09.848Z,16.30
2018-07-12T03:51:02.952Z,16.40
2018-07-12T03:55:55.812Z,16.50
2018-07-12T04:00:48.713Z,16.50
2018-07-12T04:05:41.616Z,16.50
2018-07-12T04:10:34.515Z,16.60
2018-07-12T04:20:20.514Z,16.70
2018-07-12T04:25:13.623Z,16.70
2018-07-12T04:30:06.511Z,16.80
2018-07-12T04:34:59.382Z,16.80
2018-07-12T04:39:52.474Z,16.80
2018-07-12T04:44:45.346Z,16.90
2018-07-12T04:49:38.226Z,17.10
2018-07-12T04:54:31.104Z,17.20
2018-07-12T04:59:24.042Z,17.50
2018-07-12T05:04:17.186Z,17.70
2018-07-12T05:09:11.148Z,17.90
2018-07-12T05:14:04.137Z,18.20
2018-07-12T05:23:50.327Z,18.70
2018-07-12T05:28:43.206Z,19.00
2018-07-12T05:33:36.085Z,19.10
2018-07-12T05:38:30.941Z,19.50
2018-07-12T05:43:25.557Z,20.10
2018-07-12T05:48:20.454Z,21.40
2018-07-12T05:58:10.461Z,21.90
2018-07-12T06:03:05.003Z,21.80
2018-07-12T06:17:48.579Z,24.60
2018-07-12T06:22:43.542Z,25.50
2018-07-12T06:27:38.009Z,25.30
2018-07-12T06:32:32.525Z,25.00
2018-07-12T06:37:27.441Z,24.60
2018-07-12T06:42:22.417Z,24.70
2018-07-12T06:47:17.167Z,24.60
2018-07-12T06:52:11.646Z,26.50
2018-07-12T06:57:06.456Z,27.70
2018-07-12T07:02:01.112Z,28.10
2018-07-12T07:11:50.143Z,27.30
2018-07-12T07:16:45.098Z,26.70
2018-07-12T07:21:39.918Z,29.50
2018-07-12T07:26:34.777Z,31.80
2018-07-12T07:31:29.834Z,33.10
2018-07-12T07:36:24.805Z,34.10
2018-07-12T07:41:19.625Z,34.60
2018-07-12T07:46:14.421Z,34.10
2018-07-12T07:51:09.622Z,33.80
2018-07-12T07:56:04.530Z,34.20
2018-07-12T08:00:59.368Z,33.70
2018-07-12T08:05:54.454Z,33.90
2018-07-12T08:10:49.288Z,32.50
2018-07-12T08:15:44.172Z,30.80
2018-07-12T08:20:38.977Z,31.50
2018-07-12T08:25:33.843Z,34.20
2018-07-12T08:30:28.713Z,33.70
2018-07-12T08:35:23.554Z,37.70
2018-07-12T08:40:18.426Z,39.00
2018-07-12T08:50:08.019Z,36.40
2018-07-12T08:55:03.297Z,37.00
2018-07-12T08:59:58.277Z,35.30
2018-07-12T09:04:53.188Z,33.10
2018-07-12T09:09:48.339Z,30.90
2018-07-12T09:19:38.193Z,33.60
2018-07-12T09:24:33.766Z,36.10
2018-07-12T09:29:28.775Z,34.10
2018-07-12T09:34:23.833Z,32.80
2018-07-12T09:39:18.934Z,32.50
2018-07-12T09:44:13.950Z,33.00
2018-07-12T09:49:09.147Z,34.50
2018-07-12T09:54:04.116Z,33.70
2018-07-12T09:58:59.133Z,32.30
2018-07-12T10:03:55.106Z,31.20
2018-07-12T10:08:55.070Z,30.30
2018-07-12T10:13:55.086Z,30.80
2018-07-12T10:18:51.063Z,29.30
2018-07-12T10:23:45.976Z,29.00
2018-07-12T10:28:40.816Z,28.50
2018-07-12T10:33:35.694Z,28.40
2018-07-12T10:38:30.790Z,28.60
2018-07-12T10:43:26.028Z,28.30
2018-07-12T10:48:20.892Z,28.40
2018-07-12T10:53:15.792Z,27.30
2018-07-12T11:03:04.793Z,26.10
2018-07-12T11:07:59.727Z,25.90
2018-07-12T11:13:11.919Z,26.70
2018-07-12T11:18:06.556Z,27.20
2018-07-12T11:23:01.384Z,27.60
2018-07-12T11:27:56.259Z,27.80
2018-07-12T11:32:51.196Z,27.30
2018-07-12T11:37:46.360Z,27.90
2018-07-12T11:42:41.298Z,28.00
2018-07-12T11:47:36.293Z,28.30
2018-07-12T11:52:31.442Z,28.70
2018-07-12T11:57:26.545Z,28.20
2018-07-12T12:02:21.744Z,28.30
2018-07-12T12:07:16.509Z,27.90
2018-07-12T12:12:11.256Z,27.80
2018-07-12T12:17:06.049Z,27.60
2018-07-12T12:22:01.631Z,27.80
2018-07-12T12:26:56.439Z,27.80
2018-07-12T12:31:51.793Z,27.80
2018-07-12T12:36:46.627Z,28.20
2018-07-12T12:41:41.430Z,27.90
2018-07-12T12:46:36.344Z,28.00
2018-07-12T12:56:27.476Z,27.60
2018-07-12T13:01:22.729Z,27.40
2018-07-12T13:06:18.441Z,27.60
2018-07-12T13:11:24.258Z,27.30
2018-07-12T13:16:19.408Z,27.10
2018-07-12T13:21:15.212Z,27.10
2018-07-12T13:26:10.592Z,27.70
2018-07-12T13:31:05.584Z,28.20
2018-07-12T13:36:00.885Z,28.50
2018-07-12T13:40:56.040Z,28.70
2018-07-12T13:45:51.846Z,28.70
2018-07-12T13:50:47.203Z,28.70
2018-07-12T13:55:42.547Z,28.60
2018-07-12T14:00:37.605Z,28.50
2018-07-12T14:05:33.503Z,28.40
2018-07-12T14:10:28.678Z,28.60
2018-07-12T14:15:24.285Z,28.90
2018-07-12T14:25:15.358Z,28.20
2018-07-12T14:30:10.188Z,27.70
2018-07-12T14:35:05.021Z,27.70
2018-07-12T14:40:01.310Z,28.00
2018-07-12T14:44:57.461Z,28.10
2018-07-12T14:49:52.765Z,28.30
2018-07-12T14:54:47.733Z,28.20
2018-07-12T14:59:42.656Z,28.40
2018-07-12T15:04:37.522Z,28.40
2018-07-12T15:09:32.359Z,28.00
2018-07-12T15:14:27.076Z,27.40
2018-07-12T15:19:22.030Z,27.40
2018-07-12T15:24:18.932Z,27.20
2018-07-12T15:29:14.546Z,27.50
2018-07-12T15:34:09.464Z,27.70
2018-07-12T15:39:05.465Z,27.60
2018-07-12T15:44:00.390Z,27.50
2018-07-12T15:48:55.597Z,27.60
2018-07-12T15:53:50.355Z,27.80
2018-07-12T15:58:44.932Z,27.80
2018-07-12T16:03:39.812Z,27.90
2018-07-12T16:08:35.166Z,28.00
2018-07-12T16:18:24.483Z,28.00
2018-07-12T16:23:19.220Z,28.10
2018-07-12T16:28:14.469Z,28.10
2018-07-12T16:33:09.325Z,27.80
2018-07-12T16:38:04.205Z,27.80
2018-07-12T16:42:59.241Z,28.00
2018-07-12T16:47:53.738Z,27.80
2018-07-12T16:52:49.163Z,27.80
2018-07-12T16:57:44.005Z,27.80
2018-07-12T17:02:38.806Z,28.00
2018-07-12T17:07:33.641Z,28.10
2018-07-12T17:12:28.555Z,28.10
2018-07-12T17:17:23.190Z,28.20
2018-07-12T17:22:18.780Z,28.20
2018-07-12T17:27:13.694Z,28.10
2018-07-12T17:32:08.609Z,28.10
2018-07-12T17:37:03.402Z,27.90
2018-07-12T17:46:52.913Z,27.80
2018-07-12T17:51:47.449Z,27.70
2018-07-12T17:56:41.882Z,27.70
2018-07-12T18:06:31.140Z,27.60
2018-07-12T18:11:25.655Z,27.50
2018-07-12T18:16:20.212Z,27.40
2018-07-12T18:26:09.477Z,27.10
2018-07-12T18:31:04.382Z,26.80
2018-07-12T18:35:58.949Z,26.70
2018-07-12T18:40:53.457Z,26.60
2018-07-12T18:50:42.326Z,26.30
2018-07-12T18:55:36.931Z,26.20
2018-07-12T19:00:32.234Z,26.00
2018-07-12T19:05:27.234Z,25.80
2018-07-12T19:10:21.972Z,25.40
2018-07-12T19:15:16.563Z,24.90
2018-07-12T19:20:11.202Z,24.60
2018-07-12T19:25:05.814Z,24.20
2018-07-12T19:30:00.412Z,23.90
2018-07-12T19:34:54.972Z,23.60
2018-07-12T19:39:49.653Z,23.40
2018-07-12T19:44:45.066Z,23.20
2018-07-12T19:49:40.109Z,23.00
2018-07-12T19:54:34.683Z,22.80
2018-07-12T19:59:33.200Z,22.70
2018-07-12T20:04:28.303Z,22.60
2018-07-12T20:09:23.320Z,22.50
2018-07-12T20:14:17.914Z,22.40
2018-07-12T20:19:13.304Z,22.30
2018-07-12T20:24:10.021Z,22.20
2018-07-12T20:29:04.908Z,22.20
2018-07-12T20:33:59.574Z,22.10
2018-07-12T20:48:43.468Z,21.90
2018-07-12T20:53:38.059Z,21.90
2018-07-12T20:58:34.062Z,21.90
2018-07-12T21:03:28.910Z,21.90
2018-07-12T21:08:23.370Z,21.80
2018-07-12T21:13:17.912Z,21.70
2018-07-12T21:18:12.413Z,21.60
2018-07-12T21:23:07.282Z,21.50
2018-07-12T21:28:02.002Z,21.40
2018-07-12T21:32:56.762Z,21.30
2018-07-12T21:37:51.612Z,21.20
2018-07-12T21:42:46.104Z,21.00
2018-07-12T21:47:40.597Z,20.90
2018-07-12T21:52:35.112Z,20.70
2018-07-12T21:57:30.550Z,20.60
2018-07-12T22:02:25.080Z,20.50
2018-07-12T22:08:31.154Z,20.40
2018-07-12T22:13:26.414Z,20.30
2018-07-12T22:18:21.146Z,20.10
2018-07-12T22:23:15.814Z,20.00
2018-07-12T22:28:10.306Z,19.90
2018-07-12T22:33:05.378Z,19.80
2018-07-12T22:38:01.274Z,19.70
2018-07-12T22:42:56.608Z,19.60
2018-07-12T22:47:51.842Z,19.50
2018-07-12T22:52:46.339Z,19.40
2018-07-12T22:57:41.652Z,19.30
2018-07-12T23:02:36.158Z,19.20
2018-07-12T23:07:30.932Z,19.10
2018-07-12T23:12:25.596Z,19.10
2018-07-12T23:17:20.178Z,19.00
2018-07-12T23:22:14.942Z,18.90
2018-07-12T23:27:09.558Z,18.90
2018-07-12T23:32:04.175Z,18.80
2018-07-12T23:36:58.904Z,18.70
2018-07-12T23:41:53.435Z,18.70
2018-07-12T23:46:48.153Z,18.70
2018-07-12T23:51:43.057Z,18.60
2018-07-12T23:56:37.524Z,18.50
